Hunters, WA (99137)

11:45 AM PDT on July 24, 2014 (GMT -0700)
Seven Bays (KWASEVEN2) Elev 1332 ft | 47.85 °N, 118.34 °W | Change Station

Current weather conditions updated 2 minutes ago

Overcast
Overcast
66.7 °F
Feels Like 66.7 °F
N
8.1
Wind Variable Wind from SW
Gusts 16.0 mph

Today is forecast to be Much Cooler than yesterday.

Today
High -- | Low -- °F
--% Chance of Precip.
Yesterday
High -- | Low -- °F
Precip. -- in
5:18 AM 8:39 PM
Waning Crescent, 4% visible
Pressure 30.09 in
Visibility 10.0 miles
Clouds Mostly Cloudy 3300 ft
Mostly Cloudy 4100 ft
Overcast 5500 ft
Dew Point 50 °F
Humidity 55%
Rainfall 0.00 in
Snow Depth Not available.
UV 3 out of 12
Pollen 5.70 out of 12
PM2.5 Good
Flu Activity Not available.
METAR KDEW 241753Z AUTO 20012KT 10SM BKN033 BKN041 OVC055 15/07 A3013 RMK AO2 SLP189 T01500072 10161 20094 56002

More Conditions Fewer Conditions

Pressure 30.09 in
Visibility 10.0 miles
Clouds Mostly Cloudy 3300 ft
Mostly Cloudy 4100 ft
Overcast 5500 ft
Dew Point 50 °F
Humidity 55%
Rainfall 0.00 in
Snow Depth Not available.
UV 3 out of 12
Pollen 5.70 out of 12
PM2.5 Good
Flu Activity Not available.
METAR KDEW 241753Z AUTO 20012KT 10SM BKN033 BKN041 OVC055 15/07 A3013 RMK AO2 SLP189 T01500072 10161 20094 56002

More Conditions Fewer Conditions

10-Day Weather Forecast

Almanac

Astronomy

Jul. 24, 2014 Rise Set
Actual Time 5:18 AM PDT 8:39 PM PDT
Civil Twilight 4:40 AM PDT 9:16 PM PDT
Nautical Twilight 3:50 AM PDT 10:06 PM PDT
Astronomical Twilight 2:44 AM PDT 11:10 PM PDT
Moon 3:32 AM PDT 6:54 PM PDT
Length of Visible Light 16h 36m
Length of Day
15h 20m
Tomorrow will be 2m 25s shorter.
Waning Crescent, 4% of the Moon is Illuminated
Today
Waning Crescent
Jul 26
New
Aug 3
First Quarter
Aug 10
Full
Aug 17
Last Quarter

Today's Extremes

State Highs State Lows

Community

WunderPhotos

Upload Photos

1,737,091 photos uploaded!

Nearby

Air Quality

  Air Quality AQ Index Pollutant
Yesterday Good
OZONE
Yesterday Good
PM10
Current Good
PM2.5
Thursday Good
PM10
Thursday Good
OZONE
Friday Good
PM10
Friday Good
OZONE

Snow Depth

Station Depth Elevation
Moses Mountain 1 in 5300 ft
Sentinel Butte 0 in 4920 ft
Quartz Peak 1 in 4700 ft
Bunchgrass Meadow 0 in 5000 ft
Trough 0 in 5300 ft

Earthquake Activity

City Distance Mag. Time & Date
No recent earthquake activity has been reported nearby.
Minimum magnitude displayed is 2.5.

Coastal Water Temperatures

Place Temperature
No Stations Reporting

Nearby Weather Stations

Station Location Temp. Dew Point Humidity Wind Precip. Elev Updated Type
RAWS MIDNITE MINE WA, Wellpinit, WA 53 °F 42 °F 65% WSW  at  6 mph 0.00 in / hr 2884 ft 10:39 AM PDT MADIS
Seven Bays, Seven Bays, WA 66.7 °F 50 °F 55% SW  at  8.1 mph 0.00 in / hr 1332 ft 11:42 AM PDT Rapid Fire
Kettle Falls, WA 60.1 °F 39 °F 46% SSW  at  6.7 mph 0.00 in / hr 1900 ft 11:44 AM PDT Rapid Fire

Show More Stations Show Fewer Stations